sensor_id;sensor_type;location;lat;lon;timestamp;temperature;humidity
33580;DHT22;19909;43.644;-79.438;2023-03-16T00:00:53;15.40;33.90
33580;DHT22;19909;43.644;-79.438;2023-03-16T00:03:19;15.50;33.80
33580;DHT22;19909;43.644;-79.438;2023-03-16T00:05:51;15.40;33.50
33580;DHT22;19909;43.644;-79.438;2023-03-16T00:08:18;15.40;33.50
33580;DHT22;19909;43.644;-79.438;2023-03-16T00:10:45;15.50;33.70
33580;DHT22;19909;43.644;-79.438;2023-03-16T00:13:22;15.50;33.80
33580;DHT22;19909;43.644;-79.438;2023-03-16T00:15:56;15.50;34.10
33580;DHT22;19909;43.644;-79.438;2023-03-16T00:18:25;15.40;33.90
33580;DHT22;19909;43.644;-79.438;2023-03-16T00:20:53;15.40;33.70
33580;DHT22;19909;43.644;-79.438;2023-03-16T00:23:21;15.50;33.60
33580;DHT22;19909;43.644;-79.438;2023-03-16T00:25:53;15.40;33.70
33580;DHT22;19909;43.644;-79.438;2023-03-16T00:28:20;15.50;33.90
33580;DHT22;19909;43.644;-79.438;2023-03-16T00:30:46;15.40;34.00
33580;DHT22;19909;43.644;-79.438;2023-03-16T00:33:13;15.40;34.20
33580;DHT22;19909;43.644;-79.438;2023-03-16T00:35:39;15.40;33.70
33580;DHT22;19909;43.644;-79.438;2023-03-16T00:38:17;15.40;33.70
33580;DHT22;19909;43.644;-79.438;2023-03-16T00:40:45;15.40;33.80
33580;DHT22;19909;43.644;-79.438;2023-03-16T00:43:11;15.40;33.80
33580;DHT22;19909;43.644;-79.438;2023-03-16T00:45:38;15.40;34.10
33580;DHT22;19909;43.644;-79.438;2023-03-16T00:48:04;15.40;33.90
33580;DHT22;19909;43.644;-79.438;2023-03-16T00:50:30;15.40;33.80
33580;DHT22;19909;43.644;-79.438;2023-03-16T00:52:56;15.40;33.90
33580;DHT22;19909;43.644;-79.438;2023-03-16T00:55:22;15.40;33.80
33580;DHT22;19909;43.644;-79.438;2023-03-16T00:57:48;15.50;33.70
33580;DHT22;19909;43.644;-79.438;2023-03-16T01:00:15;15.50;34.10
33580;DHT22;19909;43.644;-79.438;2023-03-16T01:02:42;15.40;33.90
33580;DHT22;19909;43.644;-79.438;2023-03-16T01:05:10;15.40;34.30
33580;DHT22;19909;43.644;-79.438;2023-03-16T01:07:40;15.40;33.70
33580;DHT22;19909;43.644;-79.438;2023-03-16T01:10:08;15.40;33.80
33580;DHT22;19909;43.644;-79.438;2023-03-16T01:12:34;15.40;33.80
33580;DHT22;19909;43.644;-79.438;2023-03-16T01:15:01;15.50;34.10
33580;DHT22;19909;43.644;-79.438;2023-03-16T01:17:27;15.40;34.00
33580;DHT22;19909;43.644;-79.438;2023-03-16T01:19:53;15.40;33.70
33580;DHT22;19909;43.644;-79.438;2023-03-16T01:22:20;15.40;33.90
33580;DHT22;19909;43.644;-79.438;2023-03-16T01:24:46;15.40;34.00
33580;DHT22;19909;43.644;-79.438;2023-03-16T01:27:13;15.40;34.00
33580;DHT22;19909;43.644;-79.438;2023-03-16T01:29:40;15.40;34.10
33580;DHT22;19909;43.644;-79.438;2023-03-16T01:32:08;15.40;34.20
33580;DHT22;19909;43.644;-79.438;2023-03-16T01:34:34;15.40;34.30
33580;DHT22;19909;43.644;-79.438;2023-03-16T01:37:01;15.40;34.10
33580;DHT22;19909;43.644;-79.438;2023-03-16T01:39:27;15.40;34.10
33580;DHT22;19909;43.644;-79.438;2023-03-16T01:41:53;15.40;34.10
33580;DHT22;19909;43.644;-79.438;2023-03-16T01:44:25;15.40;34.10
33580;DHT22;19909;43.644;-79.438;2023-03-16T01:47:00;15.40;34.30
33580;DHT22;19909;43.644;-79.438;2023-03-16T01:49:35;15.40;34.30
33580;DHT22;19909;43.644;-79.438;2023-03-16T01:52:11;15.40;34.10
33580;DHT22;19909;43.644;-79.438;2023-03-16T01:54:49;15.40;34.10
33580;DHT22;19909;43.644;-79.438;2023-03-16T01:57:28;15.40;34.10
33580;DHT22;19909;43.644;-79.438;2023-03-16T02:00:20;15.40;34.10
33580;DHT22;19909;43.644;-79.438;2023-03-16T02:02:55;15.40;34.20
33580;DHT22;19909;43.644;-79.438;2023-03-16T02:05:56;15.40;34.20
33580;DHT22;19909;43.644;-79.438;2023-03-16T02:08:24;15.40;34.30
33580;DHT22;19909;43.644;-79.438;2023-03-16T02:10:54;15.40;34.20
33580;DHT22;19909;43.644;-79.438;2023-03-16T02:13:25;15.40;34.20
33580;DHT22;19909;43.644;-79.438;2023-03-16T02:15:54;15.40;34.30
33580;DHT22;19909;43.644;-79.438;2023-03-16T02:18:21;15.40;34.30
33580;DHT22;19909;43.644;-79.438;2023-03-16T02:21:13;15.30;34.50
33580;DHT22;19909;43.644;-79.438;2023-03-16T02:23:42;15.40;34.30
33580;DHT22;19909;43.644;-79.438;2023-03-16T02:28:45;15.40;34.20
33580;DHT22;19909;43.644;-79.438;2023-03-16T02:31:16;15.40;34.30
33580;DHT22;19909;43.644;-79.438;2023-03-16T02:33:44;15.40;34.30
33580;DHT22;19909;43.644;-79.438;2023-03-16T02:36:13;15.40;34.30
33580;DHT22;19909;43.644;-79.438;2023-03-16T02:38:39;15.40;34.30
33580;DHT22;19909;43.644;-79.438;2023-03-16T02:41:17;15.40;34.30
33580;DHT22;19909;43.644;-79.438;2023-03-16T02:46:34;15.40;34.30
33580;DHT22;19909;43.644;-79.438;2023-03-16T02:49:33;15.40;34.40
33580;DHT22;19909;43.644;-79.438;2023-03-16T02:52:02;15.40;34.40
33580;DHT22;19909;43.644;-79.438;2023-03-16T02:54:28;15.30;34.30
33580;DHT22;19909;43.644;-79.438;2023-03-16T02:56:55;15.30;34.30
33580;DHT22;19909;43.644;-79.438;2023-03-16T02:59:22;15.30;34.30
33580;DHT22;19909;43.644;-79.438;2023-03-16T03:01:48;15.40;34.50
33580;DHT22;19909;43.644;-79.438;2023-03-16T03:04:14;15.30;34.50
33580;DHT22;19909;43.644;-79.438;2023-03-16T03:06:40;15.40;34.50
33580;DHT22;19909;43.644;-79.438;2023-03-16T03:09:07;15.40;34.40
33580;DHT22;19909;43.644;-79.438;2023-03-16T03:11:36;15.40;34.40
33580;DHT22;19909;43.644;-79.438;2023-03-16T03:14:03;15.40;34.40
33580;DHT22;19909;43.644;-79.438;2023-03-16T03:16:29;15.40;34.50
33580;DHT22;19909;43.644;-79.438;2023-03-16T03:18:57;15.40;34.60
33580;DHT22;19909;43.644;-79.438;2023-03-16T03:21:23;15.40;34.50
33580;DHT22;19909;43.644;-79.438;2023-03-16T03:23:49;15.40;34.40
33580;DHT22;19909;43.644;-79.438;2023-03-16T03:26:16;15.40;34.40
33580;DHT22;19909;43.644;-79.438;2023-03-16T03:28:43;15.40;34.40
33580;DHT22;19909;43.644;-79.438;2023-03-16T03:31:17;15.40;34.40
33580;DHT22;19909;43.644;-79.438;2023-03-16T03:33:44;15.40;34.60
33580;DHT22;19909;43.644;-79.438;2023-03-16T03:36:11;15.30;34.50
33580;DHT22;19909;43.644;-79.438;2023-03-16T03:38:37;15.40;34.50
33580;DHT22;19909;43.644;-79.438;2023-03-16T03:41:04;15.40;34.50
33580;DHT22;19909;43.644;-79.438;2023-03-16T03:43:33;15.40;34.50
33580;DHT22;19909;43.644;-79.438;2023-03-16T03:46:00;15.40;34.60
33580;DHT22;19909;43.644;-79.438;2023-03-16T03:48:27;15.40;34.50
33580;DHT22;19909;43.644;-79.438;2023-03-16T03:50:54;15.40;34.60
33580;DHT22;19909;43.644;-79.438;2023-03-16T03:53:20;15.40;34.60
33580;DHT22;19909;43.644;-79.438;2023-03-16T03:55:46;15.40;34.50
33580;DHT22;19909;43.644;-79.438;2023-03-16T03:58:14;15.30;34.60
33580;DHT22;19909;43.644;-79.438;2023-03-16T04:00:41;15.40;34.70
33580;DHT22;19909;43.644;-79.438;2023-03-16T04:03:07;15.40;34.70
33580;DHT22;19909;43.644;-79.438;2023-03-16T04:05:33;15.40;34.70
33580;DHT22;19909;43.644;-79.438;2023-03-16T04:07:59;15.30;34.70
33580;DHT22;19909;43.644;-79.438;2023-03-16T04:10:29;15.40;34.60
33580;DHT22;19909;43.644;-79.438;2023-03-16T04:12:56;15.40;34.70
33580;DHT22;19909;43.644;-79.438;2023-03-16T04:15:23;15.40;34.70
33580;DHT22;19909;43.644;-79.438;2023-03-16T04:17:49;15.30;34.70
33580;DHT22;19909;43.644;-79.438;2023-03-16T04:20:17;15.40;34.80
33580;DHT22;19909;43.644;-79.438;2023-03-16T04:22:46;15.30;34.70
33580;DHT22;19909;43.644;-79.438;2023-03-16T04:25:14;15.40;34.80
33580;DHT22;19909;43.644;-79.438;2023-03-16T04:27:40;15.40;34.90
33580;DHT22;19909;43.644;-79.438;2023-03-16T04:30:10;15.40;34.90
33580;DHT22;19909;43.644;-79.438;2023-03-16T04:32:37;15.30;34.80
33580;DHT22;19909;43.644;-79.438;2023-03-16T04:35:04;15.40;34.90
33580;DHT22;19909;43.644;-79.438;2023-03-16T04:37:31;15.30;34.90
33580;DHT22;19909;43.644;-79.438;2023-03-16T04:39:57;15.40;34.90
33580;DHT22;19909;43.644;-79.438;2023-03-16T04:42:23;15.40;35.00
33580;DHT22;19909;43.644;-79.438;2023-03-16T04:44:49;15.30;34.90
33580;DHT22;19909;43.644;-79.438;2023-03-16T04:47:16;15.30;34.90
33580;DHT22;19909;43.644;-79.438;2023-03-16T04:49:42;15.40;35.10
33580;DHT22;19909;43.644;-79.438;2023-03-16T04:52:08;15.30;35.00
33580;DHT22;19909;43.644;-79.438;2023-03-16T04:54:35;15.40;34.90
33580;DHT22;19909;43.644;-79.438;2023-03-16T04:57:01;15.40;35.00
33580;DHT22;19909;43.644;-79.438;2023-03-16T04:59:28;15.40;35.50
33580;DHT22;19909;43.644;-79.438;2023-03-16T05:01:54;15.40;35.10
33580;DHT22;19909;43.644;-79.438;2023-03-16T05:04:21;15.30;35.10
33580;DHT22;19909;43.644;-79.438;2023-03-16T05:06:49;15.30;35.00
33580;DHT22;19909;43.644;-79.438;2023-03-16T05:09:16;15.40;35.10
33580;DHT22;19909;43.644;-79.438;2023-03-16T05:11:42;15.30;35.00
33580;DHT22;19909;43.644;-79.438;2023-03-16T05:14:08;15.40;35.10
33580;DHT22;19909;43.644;-79.438;2023-03-16T05:16:34;15.30;35.00
33580;DHT22;19909;43.644;-79.438;2023-03-16T05:19:01;15.40;35.20
33580;DHT22;19909;43.644;-79.438;2023-03-16T05:21:27;15.40;35.20
33580;DHT22;19909;43.644;-79.438;2023-03-16T05:23:57;15.40;35.10
33580;DHT22;19909;43.644;-79.438;2023-03-16T05:26:23;15.40;35.20
33580;DHT22;19909;43.644;-79.438;2023-03-16T05:28:52;15.40;35.10
33580;DHT22;19909;43.644;-79.438;2023-03-16T05:31:18;15.30;35.20
33580;DHT22;19909;43.644;-79.438;2023-03-16T05:33:44;15.40;35.20
33580;DHT22;19909;43.644;-79.438;2023-03-16T05:36:10;15.40;35.20
33580;DHT22;19909;43.644;-79.438;2023-03-16T05:38:37;15.40;35.10
33580;DHT22;19909;43.644;-79.438;2023-03-16T05:41:04;15.30;35.10
33580;DHT22;19909;43.644;-79.438;2023-03-16T05:43:30;15.40;35.20
33580;DHT22;19909;43.644;-79.438;2023-03-16T05:45:57;15.40;35.10
33580;DHT22;19909;43.644;-79.438;2023-03-16T05:48:23;15.30;35.20
33580;DHT22;19909;43.644;-79.438;2023-03-16T05:50:52;15.30;35.20
33580;DHT22;19909;43.644;-79.438;2023-03-16T05:53:19;15.40;35.20
33580;DHT22;19909;43.644;-79.438;2023-03-16T05:55:51;15.30;35.10
33580;DHT22;19909;43.644;-79.438;2023-03-16T05:58:17;15.30;35.20
33580;DHT22;19909;43.644;-79.438;2023-03-16T06:00:43;15.30;35.20
33580;DHT22;19909;43.644;-79.438;2023-03-16T06:03:09;15.30;35.20
33580;DHT22;19909;43.644;-79.438;2023-03-16T06:05:35;15.30;35.20
33580;DHT22;19909;43.644;-79.438;2023-03-16T06:08:02;15.30;35.20
33580;DHT22;19909;43.644;-79.438;2023-03-16T06:10:28;15.40;35.20
33580;DHT22;19909;43.644;-79.438;2023-03-16T06:12:54;15.40;35.20
33580;DHT22;19909;43.644;-79.438;2023-03-16T06:15:20;15.40;35.20
33580;DHT22;19909;43.644;-79.438;2023-03-16T06:17:49;15.40;35.20
33580;DHT22;19909;43.644;-79.438;2023-03-16T06:20:16;15.40;35.30
33580;DHT22;19909;43.644;-79.438;2023-03-16T06:22:43;15.30;35.20
33580;DHT22;19909;43.644;-79.438;2023-03-16T06:25:10;15.40;35.20
33580;DHT22;19909;43.644;-79.438;2023-03-16T06:27:37;15.40;35.20
33580;DHT22;19909;43.644;-79.438;2023-03-16T06:30:05;15.30;35.20
33580;DHT22;19909;43.644;-79.438;2023-03-16T06:32:33;15.30;35.20
33580;DHT22;19909;43.644;-79.438;2023-03-16T06:35:01;15.30;35.30
33580;DHT22;19909;43.644;-79.438;2023-03-16T06:37:28;15.40;35.90
33580;DHT22;19909;43.644;-79.438;2023-03-16T06:39:55;15.40;35.30
33580;DHT22;19909;43.644;-79.438;2023-03-16T06:42:21;15.40;35.30
33580;DHT22;19909;43.644;-79.438;2023-03-16T06:44:48;15.40;35.30
33580;DHT22;19909;43.644;-79.438;2023-03-16T06:47:15;15.30;35.40
33580;DHT22;19909;43.644;-79.438;2023-03-16T06:49:41;15.30;35.50
33580;DHT22;19909;43.644;-79.438;2023-03-16T06:52:07;15.30;35.40
33580;DHT22;19909;43.644;-79.438;2023-03-16T06:54:35;15.30;35.30
33580;DHT22;19909;43.644;-79.438;2023-03-16T06:57:02;15.40;35.40
33580;DHT22;19909;43.644;-79.438;2023-03-16T06:59:29;15.30;35.30
33580;DHT22;19909;43.644;-79.438;2023-03-16T07:01:56;15.30;35.20
33580;DHT22;19909;43.644;-79.438;2023-03-16T07:04:22;15.40;35.40
33580;DHT22;19909;43.644;-79.438;2023-03-16T07:06:48;15.30;35.30
33580;DHT22;19909;43.644;-79.438;2023-03-16T07:09:16;15.30;35.20
33580;DHT22;19909;43.644;-79.438;2023-03-16T07:11:42;15.30;35.30
33580;DHT22;19909;43.644;-79.438;2023-03-16T07:14:09;15.30;35.30
33580;DHT22;19909;43.644;-79.438;2023-03-16T07:16:36;15.40;35.40
33580;DHT22;19909;43.644;-79.438;2023-03-16T07:19:02;15.30;35.30
33580;DHT22;19909;43.644;-79.438;2023-03-16T07:21:29;15.30;35.40
33580;DHT22;19909;43.644;-79.438;2023-03-16T07:24:04;15.40;35.40
33580;DHT22;19909;43.644;-79.438;2023-03-16T07:26:30;15.40;35.40
33580;DHT22;19909;43.644;-79.438;2023-03-16T07:28:58;15.40;35.40
33580;DHT22;19909;43.644;-79.438;2023-03-16T07:31:24;15.40;35.40
33580;DHT22;19909;43.644;-79.438;2023-03-16T07:33:51;15.30;35.50
33580;DHT22;19909;43.644;-79.438;2023-03-16T07:36:17;15.40;35.50
33580;DHT22;19909;43.644;-79.438;2023-03-16T07:38:43;15.30;35.40
33580;DHT22;19909;43.644;-79.438;2023-03-16T07:41:09;15.30;35.40
33580;DHT22;19909;43.644;-79.438;2023-03-16T07:43:35;15.30;35.30
33580;DHT22;19909;43.644;-79.438;2023-03-16T07:46:02;15.30;35.40
33580;DHT22;19909;43.644;-79.438;2023-03-16T07:48:28;15.40;35.40
33580;DHT22;19909;43.644;-79.438;2023-03-16T07:50:54;15.30;35.30
33580;DHT22;19909;43.644;-79.438;2023-03-16T07:53:21;15.30;35.40
33580;DHT22;19909;43.644;-79.438;2023-03-16T07:55:47;15.30;35.40
33580;DHT22;19909;43.644;-79.438;2023-03-16T07:58:13;15.30;35.30
33580;DHT22;19909;43.644;-79.438;2023-03-16T08:00:39;15.40;35.40
33580;DHT22;19909;43.644;-79.438;2023-03-16T08:03:07;15.40;35.40
33580;DHT22;19909;43.644;-79.438;2023-03-16T08:05:33;15.40;35.50
33580;DHT22;19909;43.644;-79.438;2023-03-16T08:08:00;15.30;35.40
33580;DHT22;19909;43.644;-79.438;2023-03-16T08:10:27;15.40;35.40
33580;DHT22;19909;43.644;-79.438;2023-03-16T08:12:53;15.30;35.30
33580;DHT22;19909;43.644;-79.438;2023-03-16T08:15:20;15.30;35.30
33580;DHT22;19909;43.644;-79.438;2023-03-16T08:17:46;15.40;35.40
33580;DHT22;19909;43.644;-79.438;2023-03-16T08:20:13;15.30;35.50
33580;DHT22;19909;43.644;-79.438;2023-03-16T08:22:41;15.30;35.40
33580;DHT22;19909;43.644;-79.438;2023-03-16T08:25:11;15.30;35.40
33580;DHT22;19909;43.644;-79.438;2023-03-16T08:27:37;15.30;35.50
33580;DHT22;19909;43.644;-79.438;2023-03-16T08:30:08;15.40;35.40
33580;DHT22;19909;43.644;-79.438;2023-03-16T08:32:36;15.40;35.50
33580;DHT22;19909;43.644;-79.438;2023-03-16T08:35:06;15.40;35.60
33580;DHT22;19909;43.644;-79.438;2023-03-16T08:37:32;15.30;35.50
33580;DHT22;19909;43.644;-79.438;2023-03-16T08:39:58;15.40;35.50
33580;DHT22;19909;43.644;-79.438;2023-03-16T08:42:25;15.40;35.50
33580;DHT22;19909;43.644;-79.438;2023-03-16T08:44:54;15.30;35.50
33580;DHT22;19909;43.644;-79.438;2023-03-16T08:47:21;15.40;35.50
33580;DHT22;19909;43.644;-79.438;2023-03-16T08:49:47;15.30;35.60
33580;DHT22;19909;43.644;-79.438;2023-03-16T08:52:14;15.30;35.50
33580;DHT22;19909;43.644;-79.438;2023-03-16T08:54:40;15.30;35.50
33580;DHT22;19909;43.644;-79.438;2023-03-16T08:57:06;15.40;35.50
33580;DHT22;19909;43.644;-79.438;2023-03-16T08:59:34;15.40;35.50
33580;DHT22;19909;43.644;-79.438;2023-03-16T09:02:01;15.30;35.50
33580;DHT22;19909;43.644;-79.438;2023-03-16T09:04:29;15.30;35.60
33580;DHT22;19909;43.644;-79.438;2023-03-16T09:06:55;15.40;35.60
33580;DHT22;19909;43.644;-79.438;2023-03-16T09:09:21;15.40;35.60
33580;DHT22;19909;43.644;-79.438;2023-03-16T09:11:47;15.30;35.60
33580;DHT22;19909;43.644;-79.438;2023-03-16T09:14:14;15.30;35.50
33580;DHT22;19909;43.644;-79.438;2023-03-16T09:16:40;15.30;35.60
33580;DHT22;19909;43.644;-79.438;2023-03-16T09:19:07;15.30;35.60
33580;DHT22;19909;43.644;-79.438;2023-03-16T09:21:33;15.30;35.60
33580;DHT22;19909;43.644;-79.438;2023-03-16T09:24:03;15.40;35.70
33580;DHT22;19909;43.644;-79.438;2023-03-16T09:26:29;15.30;36.20
33580;DHT22;19909;43.644;-79.438;2023-03-16T09:28:55;15.40;35.50
33580;DHT22;19909;43.644;-79.438;2023-03-16T09:31:21;15.30;35.60
33580;DHT22;19909;43.644;-79.438;2023-03-16T09:33:47;15.30;35.60
33580;DHT22;19909;43.644;-79.438;2023-03-16T09:36:14;15.40;35.80
33580;DHT22;19909;43.644;-79.438;2023-03-16T09:38:41;15.40;35.70
33580;DHT22;19909;43.644;-79.438;2023-03-16T09:46:52;15.30;35.70
33580;DHT22;19909;43.644;-79.438;2023-03-16T09:49:20;15.30;35.70
33580;DHT22;19909;43.644;-79.438;2023-03-16T09:52:16;15.30;35.70
33580;DHT22;19909;43.644;-79.438;2023-03-16T09:55:04;15.40;35.70
33580;DHT22;19909;43.644;-79.438;2023-03-16T09:57:35;15.30;35.70
33580;DHT22;19909;43.644;-79.438;2023-03-16T10:05:28;15.30;36.00
33580;DHT22;19909;43.644;-79.438;2023-03-16T10:08:11;15.40;35.80
33580;DHT22;19909;43.644;-79.438;2023-03-16T10:16:53;15.30;35.70
33580;DHT22;19909;43.644;-79.438;2023-03-16T10:21:52;15.30;35.80
33580;DHT22;19909;43.644;-79.438;2023-03-16T10:27:28;15.30;35.80
33580;DHT22;19909;43.644;-79.438;2023-03-16T10:29:55;15.30;35.80
33580;DHT22;19909;43.644;-79.438;2023-03-16T10:32:22;15.30;35.80
33580;DHT22;19909;43.644;-79.438;2023-03-16T10:35:04;15.30;35.90
33580;DHT22;19909;43.644;-79.438;2023-03-16T10:37:32;15.40;35.90
33580;DHT22;19909;43.644;-79.438;2023-03-16T10:39:58;15.30;35.80
33580;DHT22;19909;43.644;-79.438;2023-03-16T10:42:25;15.30;35.80
33580;DHT22;19909;43.644;-79.438;2023-03-16T10:44:59;15.40;35.80
33580;DHT22;19909;43.644;-79.438;2023-03-16T10:47:35;15.40;35.80
33580;DHT22;19909;43.644;-79.438;2023-03-16T10:50:13;15.30;35.90
33580;DHT22;19909;43.644;-79.438;2023-03-16T10:52:47;15.30;35.90
33580;DHT22;19909;43.644;-79.438;2023-03-16T10:57:52;15.30;35.80
33580;DHT22;19909;43.644;-79.438;2023-03-16T11:00:28;15.30;35.80
33580;DHT22;19909;43.644;-79.438;2023-03-16T11:02:58;15.30;35.90
33580;DHT22;19909;43.644;-79.438;2023-03-16T11:05:26;15.30;36.00
33580;DHT22;19909;43.644;-79.438;2023-03-16T11:07:59;15.30;35.80
33580;DHT22;19909;43.644;-79.438;2023-03-16T11:10:34;15.30;35.90
33580;DHT22;19909;43.644;-79.438;2023-03-16T11:13:07;15.30;35.80
33580;DHT22;19909;43.644;-79.438;2023-03-16T11:15:57;15.30;35.80
33580;DHT22;19909;43.644;-79.438;2023-03-16T11:18:34;15.30;35.80
33580;DHT22;19909;43.644;-79.438;2023-03-16T11:21:08;15.30;36.00
33580;DHT22;19909;43.644;-79.438;2023-03-16T11:23:40;15.30;35.90
33580;DHT22;19909;43.644;-79.438;2023-03-16T11:26:15;15.30;35.90
33580;DHT22;19909;43.644;-79.438;2023-03-16T11:28:49;15.40;35.90
33580;DHT22;19909;43.644;-79.438;2023-03-16T11:31:52;15.30;35.90
33580;DHT22;19909;43.644;-79.438;2023-03-16T11:34:31;15.30;36.00
33580;DHT22;19909;43.644;-79.438;2023-03-16T11:37:15;15.40;35.90
33580;DHT22;19909;43.644;-79.438;2023-03-16T11:45:42;15.30;35.80
33580;DHT22;19909;43.644;-79.438;2023-03-16T11:51:14;15.30;36.00
33580;DHT22;19909;43.644;-79.438;2023-03-16T11:56:30;15.30;35.90
33580;DHT22;19909;43.644;-79.438;2023-03-16T12:02:10;15.30;36.00
33580;DHT22;19909;43.644;-79.438;2023-03-16T12:10:24;15.30;36.00
33580;DHT22;19909;43.644;-79.438;2023-03-16T12:15:48;15.40;36.10
33580;DHT22;19909;43.644;-79.438;2023-03-16T12:18:23;15.30;36.10
33580;DHT22;19909;43.644;-79.438;2023-03-16T12:21:54;15.30;36.10
33580;DHT22;19909;43.644;-79.438;2023-03-16T12:23:53;15.30;36.10
33580;DHT22;19909;43.644;-79.438;2023-03-16T12:26:28;15.30;36.00
33580;DHT22;19909;43.644;-79.438;2023-03-16T12:28:58;15.30;36.00
33580;DHT22;19909;43.644;-79.438;2023-03-16T12:31:48;15.30;36.00
33580;DHT22;19909;43.644;-79.438;2023-03-16T12:34:35;15.40;36.20
33580;DHT22;19909;43.644;-79.438;2023-03-16T12:40:29;15.30;36.00
33580;DHT22;19909;43.644;-79.438;2023-03-16T12:43:30;15.40;36.10
33580;DHT22;19909;43.644;-79.438;2023-03-16T12:46:02;15.30;36.00
33580;DHT22;19909;43.644;-79.438;2023-03-16T12:48:36;15.30;36.10
33580;DHT22;19909;43.644;-79.438;2023-03-16T12:51:03;15.30;36.10
33580;DHT22;19909;43.644;-79.438;2023-03-16T12:56:29;15.30;36.10
33580;DHT22;19909;43.644;-79.438;2023-03-16T12:58:59;15.30;36.10
33580;DHT22;19909;43.644;-79.438;2023-03-16T13:01:28;15.30;36.10
33580;DHT22;19909;43.644;-79.438;2023-03-16T13:04:15;15.30;36.10
33580;DHT22;19909;43.644;-79.438;2023-03-16T13:06:49;15.30;36.10
33580;DHT22;19909;43.644;-79.438;2023-03-16T13:09:22;15.30;36.10
33580;DHT22;19909;43.644;-79.438;2023-03-16T13:11:50;15.30;36.10
33580;DHT22;19909;43.644;-79.438;2023-03-16T13:19:45;15.30;36.30
33580;DHT22;19909;43.644;-79.438;2023-03-16T13:22:28;15.30;36.20
33580;DHT22;19909;43.644;-79.438;2023-03-16T13:25:12;15.30;36.70
33580;DHT22;19909;43.644;-79.438;2023-03-16T13:27:45;15.40;36.20
33580;DHT22;19909;43.644;-79.438;2023-03-16T13:30:21;15.30;36.20
33580;DHT22;19909;43.644;-79.438;2023-03-16T13:32:53;15.30;36.20
33580;DHT22;19909;43.644;-79.438;2023-03-16T13:35:24;15.40;36.30
33580;DHT22;19909;43.644;-79.438;2023-03-16T13:37:50;15.30;36.10
33580;DHT22;19909;43.644;-79.438;2023-03-16T13:40:19;15.30;36.10
33580;DHT22;19909;43.644;-79.438;2023-03-16T13:42:47;15.30;36.10
33580;DHT22;19909;43.644;-79.438;2023-03-16T13:45:36;15.30;36.20
33580;DHT22;19909;43.644;-79.438;2023-03-16T13:48:03;15.40;36.20
33580;DHT22;19909;43.644;-79.438;2023-03-16T13:50:34;15.30;36.20
33580;DHT22;19909;43.644;-79.438;2023-03-16T13:53:10;15.30;36.10
33580;DHT22;19909;43.644;-79.438;2023-03-16T13:55:39;15.30;36.00
33580;DHT22;19909;43.644;-79.438;2023-03-16T13:58:28;15.30;36.00
33580;DHT22;19909;43.644;-79.438;2023-03-16T14:01:00;15.30;36.10
33580;DHT22;19909;43.644;-79.438;2023-03-16T14:03:38;15.40;36.30
33580;DHT22;19909;43.644;-79.438;2023-03-16T14:06:26;15.30;35.90
33580;DHT22;19909;43.644;-79.438;2023-03-16T14:08:57;15.30;35.80
33580;DHT22;19909;43.644;-79.438;2023-03-16T14:11:26;15.40;35.90
33580;DHT22;19909;43.644;-79.438;2023-03-16T14:13:55;15.40;36.20
33580;DHT22;19909;43.644;-79.438;2023-03-16T14:16:26;15.40;36.30
33580;DHT22;19909;43.644;-79.438;2023-03-16T14:19:01;15.40;36.40
33580;DHT22;19909;43.644;-79.438;2023-03-16T14:21:31;15.40;36.10
33580;DHT22;19909;43.644;-79.438;2023-03-16T14:24:05;15.30;35.80
33580;DHT22;19909;43.644;-79.438;2023-03-16T14:26:41;15.40;36.10
33580;DHT22;19909;43.644;-79.438;2023-03-16T14:29:30;15.40;36.40
33580;DHT22;19909;43.644;-79.438;2023-03-16T14:31:57;15.40;36.50
33580;DHT22;19909;43.644;-79.438;2023-03-16T14:34:37;15.30;36.40
33580;DHT22;19909;43.644;-79.438;2023-03-16T14:37:13;15.40;36.00
33580;DHT22;19909;43.644;-79.438;2023-03-16T14:39:41;15.40;36.00
33580;DHT22;19909;43.644;-79.438;2023-03-16T14:42:22;15.40;36.30
33580;DHT22;19909;43.644;-79.438;2023-03-16T14:44:53;15.40;36.50
33580;DHT22;19909;43.644;-79.438;2023-03-16T14:47:24;15.40;36.60
33580;DHT22;19909;43.644;-79.438;2023-03-16T14:49:51;15.40;36.30
33580;DHT22;19909;43.644;-79.438;2023-03-16T14:52:26;15.40;36.10
33580;DHT22;19909;43.644;-79.438;2023-03-16T14:54:57;15.40;36.10
33580;DHT22;19909;43.644;-79.438;2023-03-16T14:57:24;15.40;36.40
33580;DHT22;19909;43.644;-79.438;2023-03-16T14:59:53;15.40;36.60
33580;DHT22;19909;43.644;-79.438;2023-03-16T15:02:29;15.40;36.60
33580;DHT22;19909;43.644;-79.438;2023-03-16T15:04:57;15.40;36.40
33580;DHT22;19909;43.644;-79.438;2023-03-16T15:07:30;15.40;36.10
33580;DHT22;19909;43.644;-79.438;2023-03-16T15:10:08;15.40;36.20
33580;DHT22;19909;43.644;-79.438;2023-03-16T15:12:42;15.40;36.50
33580;DHT22;19909;43.644;-79.438;2023-03-16T15:15:21;15.40;36.70
33580;DHT22;19909;43.644;-79.438;2023-03-16T15:17:50;15.40;36.60
33580;DHT22;19909;43.644;-79.438;2023-03-16T15:20:21;15.40;36.40
33580;DHT22;19909;43.644;-79.438;2023-03-16T15:22:49;15.40;36.30
33580;DHT22;19909;43.644;-79.438;2023-03-16T15:25:24;15.40;36.20
33580;DHT22;19909;43.644;-79.438;2023-03-16T15:27:53;15.40;36.50
33580;DHT22;19909;43.644;-79.438;2023-03-16T15:30:24;15.40;36.70
33580;DHT22;19909;43.644;-79.438;2023-03-16T15:32:51;15.40;36.80
33580;DHT22;19909;43.644;-79.438;2023-03-16T15:35:18;15.40;36.50
33580;DHT22;19909;43.644;-79.438;2023-03-16T15:37:46;15.40;36.40
33580;DHT22;19909;43.644;-79.438;2023-03-16T15:40:20;15.40;36.30
33580;DHT22;19909;43.644;-79.438;2023-03-16T15:42:47;15.40;36.60
33580;DHT22;19909;43.644;-79.438;2023-03-16T15:45:17;15.40;36.80
33580;DHT22;19909;43.644;-79.438;2023-03-16T15:47:49;15.40;36.90
33580;DHT22;19909;43.644;-79.438;2023-03-16T15:50:17;15.40;36.50
33580;DHT22;19909;43.644;-79.438;2023-03-16T15:52:48;15.40;36.50
33580;DHT22;19909;43.644;-79.438;2023-03-16T15:55:21;15.40;36.40
33580;DHT22;19909;43.644;-79.438;2023-03-16T15:57:54;15.40;36.70
33580;DHT22;19909;43.644;-79.438;2023-03-16T16:02:47;15.40;36.90
33580;DHT22;19909;43.644;-79.438;2023-03-16T16:05:13;15.40;36.70
33580;DHT22;19909;43.644;-79.438;2023-03-16T16:07:39;15.50;36.50
33580;DHT22;19909;43.644;-79.438;2023-03-16T16:10:07;15.50;36.50
33580;DHT22;19909;43.644;-79.438;2023-03-16T16:12:33;15.50;36.70
33580;DHT22;19909;43.644;-79.438;2023-03-16T16:15:00;15.40;36.90
33580;DHT22;19909;43.644;-79.438;2023-03-16T16:17:26;15.40;36.90
33580;DHT22;19909;43.644;-79.438;2023-03-16T16:19:53;15.40;36.70
33580;DHT22;19909;43.644;-79.438;2023-03-16T16:22:20;15.40;36.40
33580;DHT22;19909;43.644;-79.438;2023-03-16T16:24:46;15.50;36.40
33580;DHT22;19909;43.644;-79.438;2023-03-16T16:27:13;15.50;36.70